sensor_id;sensor_type;location;lat;lon;timestamp;noise_LAeq;noise_LA_min;noise_LA_max;noise_LA01;noise_LA95
37223;Laerm;28026;48.562;14.440;2022-09-03T00:00:24;38.54;32.35;43.44;;
37223;Laerm;28026;48.562;14.440;2022-09-03T00:03:05;37.74;32.93;41.14;;
37223;Laerm;28026;48.562;14.440;2022-09-03T00:06:05;38.09;33.44;41.30;;
37223;Laerm;28026;48.562;14.440;2022-09-03T00:09:08;38.22;33.90;42.93;;
37223;Laerm;28026;48.562;14.440;2022-09-03T00:12:10;38.06;33.44;41.14;;
37223;Laerm;28026;48.562;14.440;2022-09-03T00:15:03;37.96;32.35;42.47;;
37223;Laerm;28026;48.562;14.440;2022-09-03T00:17:44;38.04;33.44;41.38;;
37223;Laerm;28026;48.562;14.440;2022-09-03T00:20:43;38.36;34.31;43.14;;
37223;Laerm;28026;48.562;14.440;2022-09-03T00:23:24;38.30;33.90;42.93;;
37223;Laerm;28026;48.562;14.440;2022-09-03T00:29:10;38.28;33.90;40.89;;
37223;Laerm;28026;48.562;14.440;2022-09-03T00:32:21;38.40;32.35;50.05;;
37223;Laerm;28026;48.562;14.440;2022-09-03T00:35:10;38.37;32.93;42.09;;
37223;Laerm;28026;48.562;14.440;2022-09-03T00:37:43;38.60;33.44;41.46;;
37223;Laerm;28026;48.562;14.440;2022-09-03T00:40:39;40.25;35.04;44.27;;
37223;Laerm;28026;48.562;14.440;2022-09-03T00:43:40;38.49;33.90;42.59;;
37223;Laerm;28026;48.562;14.440;2022-09-03T00:46:55;38.87;33.90;42.53;;
37223;Laerm;28026;48.562;14.440;2022-09-03T00:55:15;38.97;33.44;42.29;;
37223;Laerm;28026;48.562;14.440;2022-09-03T00:59:38;39.37;33.90;51.95;;
37223;Laerm;28026;48.562;14.440;2022-09-03T01:05:45;38.62;32.93;47.04;;
37223;Laerm;28026;48.562;14.440;2022-09-03T01:14:59;39.37;34.31;43.24;;
37223;Laerm;28026;48.562;14.440;2022-09-03T01:17:59;39.32;34.69;44.54;;
37223;Laerm;28026;48.562;14.440;2022-09-03T01:30:04;38.32;33.90;42.88;;
37223;Laerm;28026;48.562;14.440;2022-09-03T01:36:11;37.51;32.35;47.18;;
37223;Laerm;28026;48.562;14.440;2022-09-03T01:38:55;37.88;32.35;52.35;;
37223;Laerm;28026;48.562;14.440;2022-09-03T01:51:27;38.10;32.00;50.70;;
37223;Laerm;28026;48.562;14.440;2022-09-03T01:54:58;38.97;33.44;46.15;;
37223;Laerm;28026;48.562;14.440;2022-09-03T01:58:06;38.53;33.44;43.54;;
37223;Laerm;28026;48.562;14.440;2022-09-03T02:00:48;38.93;33.90;62.57;;
37223;Laerm;28026;48.562;14.440;2022-09-03T02:03:24;37.97;32.35;41.75;;
37223;Laerm;28026;48.562;14.440;2022-09-03T02:06:03;38.37;31.68;45.45;;
37223;Laerm;28026;48.562;14.440;2022-09-03T02:08:38;38.70;32.93;54.58;;
37223;Laerm;28026;48.562;14.440;2022-09-03T02:11:09;38.32;33.44;41.22;;
37223;Laerm;28026;48.562;14.440;2022-09-03T02:13:56;38.06;32.93;42.29;;
37223;Laerm;28026;48.562;14.440;2022-09-03T02:16:34;38.62;33.90;49.27;;
37223;Laerm;28026;48.562;14.440;2022-09-03T02:19:15;39.32;34.31;48.05;;
37223;Laerm;28026;48.562;14.440;2022-09-03T02:21:54;38.28;32.93;43.63;;
37223;Laerm;28026;48.562;14.440;2022-09-03T02:24:27;39.39;32.93;43.49;;
37223;Laerm;28026;48.562;14.440;2022-09-03T02:26:58;38.24;32.93;42.47;;
37223;Laerm;28026;48.562;14.440;2022-09-03T02:29:30;40.38;33.90;46.13;;
37223;Laerm;28026;48.562;14.440;2022-09-03T02:32:02;39.43;31.68;48.16;;
37223;Laerm;28026;48.562;14.440;2022-09-03T02:34:33;37.98;32.35;43.90;;
37223;Laerm;28026;48.562;14.440;2022-09-03T02:37:14;38.13;33.44;46.95;;
37223;Laerm;28026;48.562;14.440;2022-09-03T02:39:46;37.94;32.35;43.14;;
37223;Laerm;28026;48.562;14.440;2022-09-03T02:42:17;37.98;32.93;41.96;;
37223;Laerm;28026;48.562;14.440;2022-09-03T02:45:00;38.08;32.35;46.20;;
37223;Laerm;28026;48.562;14.440;2022-09-03T02:47:39;38.37;34.69;44.31;;
37223;Laerm;28026;48.562;14.440;2022-09-03T02:50:12;38.18;33.44;46.02;;
37223;Laerm;28026;48.562;14.440;2022-09-03T02:52:43;38.12;33.44;54.89;;
37223;Laerm;28026;48.562;14.440;2022-09-03T02:55:15;37.96;32.35;43.72;;
37223;Laerm;28026;48.562;14.440;2022-09-03T02:57:47;38.29;33.90;47.55;;
37223;Laerm;28026;48.562;14.440;2022-09-03T03:00:18;37.94;33.44;42.53;;
37223;Laerm;28026;48.562;14.440;2022-09-03T03:02:49;38.77;32.93;47.32;;
37223;Laerm;28026;48.562;14.440;2022-09-03T03:08:12;39.84;32.93;46.48;;
37223;Laerm;28026;48.562;14.440;2022-09-03T03:10:44;39.35;35.04;47.95;;
37223;Laerm;28026;48.562;14.440;2022-09-03T03:13:15;39.61;34.69;44.69;;
37223;Laerm;28026;48.562;14.440;2022-09-03T03:15:46;40.12;34.31;62.94;;
37223;Laerm;28026;48.562;14.440;2022-09-03T03:18:18;38.83;34.31;49.47;;
37223;Laerm;28026;48.562;14.440;2022-09-03T03:20:50;38.99;33.44;44.31;;
37223;Laerm;28026;48.562;14.440;2022-09-03T03:23:21;38.28;31.68;42.03;;
37223;Laerm;28026;48.562;14.440;2022-09-03T03:25:52;39.95;34.31;52.40;;
37223;Laerm;28026;48.562;14.440;2022-09-03T03:28:23;40.83;33.90;54.48;;
37223;Laerm;28026;48.562;14.440;2022-09-03T03:30:54;38.88;33.44;49.12;;
37223;Laerm;28026;48.562;14.440;2022-09-03T03:33:25;39.91;33.44;62.16;;
37223;Laerm;28026;48.562;14.440;2022-09-03T03:35:56;41.80;35.36;50.59;;
37223;Laerm;28026;48.562;14.440;2022-09-03T03:38:27;40.06;33.90;50.96;;
37223;Laerm;28026;48.562;14.440;2022-09-03T03:40:58;40.20;34.31;50.35;;
37223;Laerm;28026;48.562;14.440;2022-09-03T03:43:29;39.35;34.69;42.71;;
37223;Laerm;28026;48.562;14.440;2022-09-03T03:46:00;38.71;33.90;43.34;;
37223;Laerm;28026;48.562;14.440;2022-09-03T03:48:32;38.59;34.69;41.89;;
37223;Laerm;28026;48.562;14.440;2022-09-03T03:51:08;41.24;35.04;51.67;;
37223;Laerm;28026;48.562;14.440;2022-09-03T03:53:40;38.85;35.04;43.81;;
37223;Laerm;28026;48.562;14.440;2022-09-03T03:56:14;38.63;34.31;42.29;;
37223;Laerm;28026;48.562;14.440;2022-09-03T03:58:46;38.70;32.93;47.57;;
37223;Laerm;28026;48.562;14.440;2022-09-03T04:01:23;40.15;34.31;45.54;;
37223;Laerm;28026;48.562;14.440;2022-09-03T04:03:56;39.54;35.04;53.51;;
37223;Laerm;28026;48.562;14.440;2022-09-03T04:06:28;38.99;34.31;43.34;;
37223;Laerm;28026;48.562;14.440;2022-09-03T04:08:59;41.47;36.20;53.73;;
37223;Laerm;28026;48.562;14.440;2022-09-03T04:11:30;43.10;38.52;46.45;;
37223;Laerm;28026;48.562;14.440;2022-09-03T04:14:02;41.42;36.45;49.15;;
37223;Laerm;28026;48.562;14.440;2022-09-03T04:16:33;42.59;36.20;62.49;;
37223;Laerm;28026;48.562;14.440;2022-09-03T04:19:04;40.98;36.45;59.17;;
37223;Laerm;28026;48.562;14.440;2022-09-03T04:21:35;39.21;33.44;49.98;;
37223;Laerm;28026;48.562;14.440;2022-09-03T04:24:06;39.97;35.36;47.86;;
37223;Laerm;28026;48.562;14.440;2022-09-03T04:26:38;39.86;35.36;45.69;;
37223;Laerm;28026;48.562;14.440;2022-09-03T04:29:10;43.02;36.69;64.48;;
37223;Laerm;28026;48.562;14.440;2022-09-03T04:31:41;41.37;34.69;64.94;;
37223;Laerm;28026;48.562;14.440;2022-09-03T04:34:35;39.72;34.69;54.34;;
37223;Laerm;28026;48.562;14.440;2022-09-03T04:37:06;41.29;36.20;45.80;;
37223;Laerm;28026;48.562;14.440;2022-09-03T04:39:37;41.23;34.69;58.98;;
37223;Laerm;28026;48.562;14.440;2022-09-03T04:42:08;40.32;35.36;48.28;;
37223;Laerm;28026;48.562;14.440;2022-09-03T04:44:39;40.62;36.91;45.72;;
37223;Laerm;28026;48.562;14.440;2022-09-03T04:47:10;42.31;35.66;68.44;;
37223;Laerm;28026;48.562;14.440;2022-09-03T04:49:41;40.22;36.69;47.36;;
37223;Laerm;28026;48.562;14.440;2022-09-03T04:52:12;39.65;35.04;49.29;;
37223;Laerm;28026;48.562;14.440;2022-09-03T04:54:43;40.39;35.94;62.73;;
37223;Laerm;28026;48.562;14.440;2022-09-03T04:57:14;41.02;35.66;59.22;;
37223;Laerm;28026;48.562;14.440;2022-09-03T04:59:45;40.19;35.94;45.01;;
37223;Laerm;28026;48.562;14.440;2022-09-03T05:02:16;39.26;33.90;43.68;;
37223;Laerm;28026;48.562;14.440;2022-09-03T05:04:47;39.56;35.94;44.16;;
37223;Laerm;28026;48.562;14.440;2022-09-03T05:07:18;39.20;35.36;43.29;;
37223;Laerm;28026;48.562;14.440;2022-09-03T05:09:50;39.53;35.04;61.74;;
37223;Laerm;28026;48.562;14.440;2022-09-03T05:12:21;42.02;36.69;45.17;;
37223;Laerm;28026;48.562;14.440;2022-09-03T05:14:53;41.62;36.91;46.71;;
37223;Laerm;28026;48.562;14.440;2022-09-03T05:17:24;42.73;36.91;51.83;;
37223;Laerm;28026;48.562;14.440;2022-09-03T05:19:56;43.25;37.70;54.74;;
37223;Laerm;28026;48.562;14.440;2022-09-03T05:22:27;42.78;38.52;49.23;;
37223;Laerm;28026;48.562;14.440;2022-09-03T05:24:58;43.82;38.99;50.07;;
37223;Laerm;28026;48.562;14.440;2022-09-03T05:27:31;42.01;37.52;45.86;;
37223;Laerm;28026;48.562;14.440;2022-09-03T05:30:02;41.44;36.91;47.08;;
37223;Laerm;28026;48.562;14.440;2022-09-03T05:32:34;41.93;37.70;45.86;;
37223;Laerm;28026;48.562;14.440;2022-09-03T05:35:08;42.03;37.70;47.10;;
37223;Laerm;28026;48.562;14.440;2022-09-03T05:37:40;40.55;36.20;49.24;;
37223;Laerm;28026;48.562;14.440;2022-09-03T05:40:11;40.82;36.91;44.39;;
37223;Laerm;28026;48.562;14.440;2022-09-03T05:42:42;42.84;37.52;48.40;;
37223;Laerm;28026;48.562;14.440;2022-09-03T05:45:13;44.35;38.52;66.64;;
37223;Laerm;28026;48.562;14.440;2022-09-03T05:47:44;43.03;39.46;47.20;;
37223;Laerm;28026;48.562;14.440;2022-09-03T05:50:15;42.28;36.45;50.86;;
37223;Laerm;28026;48.562;14.440;2022-09-03T05:52:46;43.34;38.05;54.24;;
37223;Laerm;28026;48.562;14.440;2022-09-03T05:55:18;41.33;36.91;46.55;;
37223;Laerm;28026;48.562;14.440;2022-09-03T05:57:52;43.74;38.52;50.58;;
37223;Laerm;28026;48.562;14.440;2022-09-03T06:00:23;40.52;36.69;50.15;;
37223;Laerm;28026;48.562;14.440;2022-09-03T06:02:54;39.93;35.36;47.60;;
37223;Laerm;28026;48.562;14.440;2022-09-03T06:05:25;40.14;35.36;57.27;;
37223;Laerm;28026;48.562;14.440;2022-09-03T06:07:55;41.83;36.69;64.24;;
37223;Laerm;28026;48.562;14.440;2022-09-03T06:10:26;39.96;36.20;55.38;;
37223;Laerm;28026;48.562;14.440;2022-09-03T06:12:57;41.02;36.45;53.58;;
37223;Laerm;28026;48.562;14.440;2022-09-03T06:15:32;40.80;36.20;52.24;;
37223;Laerm;28026;48.562;14.440;2022-09-03T06:18:04;50.59;38.52;72.50;;
37223;Laerm;28026;48.562;14.440;2022-09-03T06:20:35;44.55;37.32;67.86;;
37223;Laerm;28026;48.562;14.440;2022-09-03T06:23:06;42.31;38.18;54.21;;
37223;Laerm;28026;48.562;14.440;2022-09-03T06:25:37;42.30;38.52;47.20;;
37223;Laerm;28026;48.562;14.440;2022-09-03T06:28:08;41.44;37.52;55.20;;
37223;Laerm;28026;48.562;14.440;2022-09-03T06:30:39;41.61;36.20;57.46;;
37223;Laerm;28026;48.562;14.440;2022-09-03T06:33:11;40.90;37.12;53.71;;
37223;Laerm;28026;48.562;14.440;2022-09-03T06:35:42;41.72;37.70;53.64;;
37223;Laerm;28026;48.562;14.440;2022-09-03T06:38:13;40.81;37.70;45.60;;
37223;Laerm;28026;48.562;14.440;2022-09-03T06:40:55;41.95;37.87;57.84;;
37223;Laerm;28026;48.562;14.440;2022-09-03T06:43:30;43.01;38.21;58.64;;
37223;Laerm;28026;48.562;14.440;2022-09-03T06:46:13;42.29;38.05;57.70;;
37223;Laerm;28026;48.562;14.440;2022-09-03T06:48:45;41.86;37.52;59.33;;
37223;Laerm;28026;48.562;14.440;2022-09-03T06:51:24;43.10;37.12;61.78;;
37223;Laerm;28026;48.562;14.440;2022-09-03T06:54:09;42.84;38.05;58.59;;
37223;Laerm;28026;48.562;14.440;2022-09-03T06:56:40;41.91;38.21;56.68;;
37223;Laerm;28026;48.562;14.440;2022-09-03T06:59:14;42.64;38.52;56.50;;
37223;Laerm;28026;48.562;14.440;2022-09-03T07:01:45;41.74;37.52;59.88;;
37223;Laerm;28026;48.562;14.440;2022-09-03T07:04:16;43.52;37.88;54.67;;
37223;Laerm;28026;48.562;14.440;2022-09-03T07:06:47;46.08;40.13;56.58;;
37223;Laerm;28026;48.562;14.440;2022-09-03T07:09:18;41.35;36.69;58.71;;
37223;Laerm;28026;48.562;14.440;2022-09-03T07:11:48;42.73;36.69;59.95;;
37223;Laerm;28026;48.562;14.440;2022-09-03T07:14:20;42.34;37.70;65.42;;
37223;Laerm;28026;48.562;14.440;2022-09-03T07:16:51;43.85;37.88;69.73;;
37223;Laerm;28026;48.562;14.440;2022-09-03T07:19:22;41.97;37.12;55.06;;
37223;Laerm;28026;48.562;14.440;2022-09-03T07:21:53;43.23;37.70;63.88;;
37223;Laerm;28026;48.562;14.440;2022-09-03T07:24:24;51.50;38.81;63.24;;
37223;Laerm;28026;48.562;14.440;2022-09-03T07:26:57;49.83;39.21;60.88;;
37223;Laerm;28026;48.562;14.440;2022-09-03T07:29:28;44.57;38.67;67.62;;
37223;Laerm;28026;48.562;14.440;2022-09-03T07:31:59;43.67;38.05;56.55;;
37223;Laerm;28026;48.562;14.440;2022-09-03T07:34:30;45.62;39.08;55.58;;
37223;Laerm;28026;48.562;14.440;2022-09-03T07:37:01;43.81;37.52;56.24;;
37223;Laerm;28026;48.562;14.440;2022-09-03T07:39:32;42.97;37.12;57.01;;
37223;Laerm;28026;48.562;14.440;2022-09-03T07:42:04;42.27;38.67;48.90;;
37223;Laerm;28026;48.562;14.440;2022-09-03T07:44:35;42.02;37.17;61.08;;
37223;Laerm;28026;48.562;14.440;2022-09-03T07:47:06;42.51;38.05;66.17;;
37223;Laerm;28026;48.562;14.440;2022-09-03T07:49:37;41.80;38.21;54.36;;
37223;Laerm;28026;48.562;14.440;2022-09-03T07:52:08;42.74;38.21;49.25;;
37223;Laerm;28026;48.562;14.440;2022-09-03T07:54:40;42.16;38.52;60.91;;
37223;Laerm;28026;48.562;14.440;2022-09-03T07:57:11;41.53;37.88;50.10;;
37223;Laerm;28026;48.562;14.440;2022-09-03T07:59:42;41.94;38.37;56.73;;
37223;Laerm;28026;48.562;14.440;2022-09-03T08:02:13;42.94;38.37;60.44;;
37223;Laerm;28026;48.562;14.440;2022-09-03T08:04:44;42.83;38.52;63.52;;
37223;Laerm;28026;48.562;14.440;2022-09-03T08:07:15;43.48;39.08;60.49;;
37223;Laerm;28026;48.562;14.440;2022-09-03T08:09:46;43.08;38.21;61.60;;
37223;Laerm;28026;48.562;14.440;2022-09-03T08:12:16;43.29;38.52;58.12;;
37223;Laerm;28026;48.562;14.440;2022-09-03T08:14:47;42.89;39.08;47.12;;
37223;Laerm;28026;48.562;14.440;2022-09-03T08:17:18;43.21;38.52;56.80;;
37223;Laerm;28026;48.562;14.440;2022-09-03T08:19:49;43.03;38.81;67.36;;
37223;Laerm;28026;48.562;14.440;2022-09-03T08:22:20;42.76;37.52;51.08;;
37223;Laerm;28026;48.562;14.440;2022-09-03T08:24:52;43.45;39.89;52.18;;
37223;Laerm;28026;48.562;14.440;2022-09-03T08:27:24;42.89;38.52;49.04;;
37223;Laerm;28026;48.562;14.440;2022-09-03T08:29:55;42.03;38.67;55.74;;
37223;Laerm;28026;48.562;14.440;2022-09-03T08:32:26;45.30;37.12;67.38;;
37223;Laerm;28026;48.562;14.440;2022-09-03T08:34:57;42.11;37.70;50.02;;
37223;Laerm;28026;48.562;14.440;2022-09-03T08:37:27;41.72;38.52;53.05;;
37223;Laerm;28026;48.562;14.440;2022-09-03T08:39:59;42.78;38.81;58.62;;
37223;Laerm;28026;48.562;14.440;2022-09-03T08:43:06;43.64;39.34;53.57;;
37223;Laerm;28026;48.562;14.440;2022-09-03T08:45:40;43.29;39.21;51.94;;
37223;Laerm;28026;48.562;14.440;2022-09-03T08:48:20;43.03;39.34;61.00;;
37223;Laerm;28026;48.562;14.440;2022-09-03T08:50:58;42.83;38.74;53.46;;
37223;Laerm;28026;48.562;14.440;2022-09-03T08:53:51;42.32;37.87;56.06;;
37223;Laerm;28026;48.562;14.440;2022-09-03T08:56:31;42.29;38.21;64.69;;
37223;Laerm;28026;48.562;14.440;2022-09-03T08:59:03;44.72;40.43;56.35;;
37223;Laerm;28026;48.562;14.440;2022-09-03T09:01:54;42.57;39.46;48.58;;
37223;Laerm;28026;48.562;14.440;2022-09-03T09:04:52;43.30;38.81;55.79;;
37223;Laerm;28026;48.562;14.440;2022-09-03T09:08:00;41.95;38.21;53.42;;
37223;Laerm;28026;48.562;14.440;2022-09-03T09:14:19;41.66;38.05;47.10;;
37223;Laerm;28026;48.562;14.440;2022-09-03T09:17:35;41.57;38.67;58.42;;
37223;Laerm;28026;48.562;14.440;2022-09-03T09:20:53;43.76;38.05;67.29;;
37223;Laerm;28026;48.562;14.440;2022-09-03T09:23:40;43.54;38.37;57.02;;
37223;Laerm;28026;48.562;14.440;2022-09-03T09:26:19;44.45;41.61;54.88;;
37223;Laerm;28026;48.562;14.440;2022-09-03T09:29:08;44.97;42.22;57.02;;
37223;Laerm;28026;48.562;14.440;2022-09-03T09:31:41;42.45;38.21;50.09;;
37223;Laerm;28026;48.562;14.440;2022-09-03T09:34:15;44.97;41.53;62.17;;
37223;Laerm;28026;48.562;14.440;2022-09-03T09:36:54;44.86;39.70;58.78;;
37223;Laerm;28026;48.562;14.440;2022-09-03T09:39:25;43.03;38.37;58.96;;
37223;Laerm;28026;48.562;14.440;2022-09-03T09:42:15;44.03;38.05;61.57;;
37223;Laerm;28026;48.562;14.440;2022-09-03T09:44:46;41.07;37.52;57.88;;
37223;Laerm;28026;48.562;14.440;2022-09-03T09:47:38;42.59;37.32;57.55;;
37223;Laerm;28026;48.562;14.440;2022-09-03T09:50:19;43.72;38.18;54.83;;
37223;Laerm;28026;48.562;14.440;2022-09-03T09:53:08;41.87;35.94;61.41;;
37223;Laerm;28026;48.562;14.440;2022-09-03T09:55:54;41.99;36.45;52.64;;
37223;Laerm;28026;48.562;14.440;2022-09-03T09:58:30;43.91;38.67;62.08;;
37223;Laerm;28026;48.562;14.440;2022-09-03T10:01:23;56.23;38.95;69.09;;
37223;Laerm;28026;48.562;14.440;2022-09-03T10:03:58;42.71;37.88;48.42;;
37223;Laerm;28026;48.562;14.440;2022-09-03T10:06:31;41.94;36.69;63.26;;
37223;Laerm;28026;48.562;14.440;2022-09-03T10:09:25;41.02;35.36;45.17;;
37223;Laerm;28026;48.562;14.440;2022-09-03T10:14:54;43.36;37.12;56.81;;
37223;Laerm;28026;48.562;14.440;2022-09-03T10:17:47;43.14;37.12;63.26;;
37223;Laerm;28026;48.562;14.440;2022-09-03T10:23:28;41.18;35.36;53.68;;
37223;Laerm;28026;48.562;14.440;2022-09-03T10:26:15;41.76;35.36;48.28;;
37223;Laerm;28026;48.562;14.440;2022-09-03T10:28:51;40.87;32.93;54.81;;
37223;Laerm;28026;48.562;14.440;2022-09-03T10:38:33;42.02;33.44;60.22;;
37223;Laerm;28026;48.562;14.440;2022-09-03T10:41:36;41.57;34.69;58.67;;
37223;Laerm;28026;48.562;14.440;2022-09-03T10:51:15;38.57;33.44;56.39;;
37223;Laerm;28026;48.562;14.440;2022-09-03T11:00:16;43.54;36.45;59.99;;
37223;Laerm;28026;48.562;14.440;2022-09-03T11:06:28;45.32;35.04;68.22;;
37223;Laerm;28026;48.562;14.440;2022-09-03T11:09:42;41.08;35.66;56.61;;
37223;Laerm;28026;48.562;14.440;2022-09-03T11:12:31;41.49;36.45;60.80;;
37223;Laerm;28026;48.562;14.440;2022-09-03T11:15:15;42.22;37.52;49.47;;
37223;Laerm;28026;48.562;14.440;2022-09-03T11:18:48;42.81;37.70;63.89;;
37223;Laerm;28026;48.562;14.440;2022-09-03T11:21:26;47.28;37.88;70.40;;
37223;Laerm;28026;48.562;14.440;2022-09-03T11:24:27;46.16;37.12;71.57;;
37223;Laerm;28026;48.562;14.440;2022-09-03T11:30:24;43.99;37.12;64.73;;
37223;Laerm;28026;48.562;14.440;2022-09-03T11:33:08;49.19;37.32;76.00;;
37223;Laerm;28026;48.562;14.440;2022-09-03T11:35:42;43.99;37.70;55.46;;
37223;Laerm;28026;48.562;14.440;2022-09-03T11:41:21;42.24;36.45;67.71;;
37223;Laerm;28026;48.562;14.440;2022-09-03T11:43:54;41.63;37.32;59.08;;
37223;Laerm;28026;48.562;14.440;2022-09-03T11:49:12;43.17;37.88;68.22;;
37223;Laerm;28026;48.562;14.440;2022-09-03T11:52:04;42.60;37.52;60.07;;
37223;Laerm;28026;48.562;14.440;2022-09-03T11:54:46;44.84;39.08;59.57;;
37223;Laerm;28026;48.562;14.440;2022-09-03T11:57:29;56.90;38.95;78.40;;
37223;Laerm;28026;48.562;14.440;2022-09-03T12:00:16;44.49;38.37;64.30;;
37223;Laerm;28026;48.562;14.440;2022-09-03T12:03:00;51.36;39.58;73.89;;
37223;Laerm;28026;48.562;14.440;2022-09-03T12:19:08;53.34;40.03;77.69;;
37223;Laerm;28026;48.562;14.440;2022-09-03T12:21:41;57.30;39.46;79.96;;
37223;Laerm;28026;48.562;14.440;2022-09-03T12:24:18;53.47;38.05;78.05;;
37223;Laerm;28026;48.562;14.440;2022-09-03T12:26:49;55.01;39.21;75.86;;
37223;Laerm;28026;48.562;14.440;2022-09-03T12:29:28;51.64;36.91;72.53;;
37223;Laerm;28026;48.562;14.440;2022-09-03T12:32:12;51.87;39.21;75.09;;
37223;Laerm;28026;48.562;14.440;2022-09-03T12:34:43;50.69;39.57;70.47;;
37223;Laerm;28026;48.562;14.440;2022-09-03T12:37:32;52.92;39.81;73.10;;
37223;Laerm;28026;48.562;14.440;2022-09-03T12:40:16;50.15;38.37;72.88;;
37223;Laerm;28026;48.562;14.440;2022-09-03T12:42:48;52.61;38.05;75.26;;
37223;Laerm;28026;48.562;14.440;2022-09-03T12:45:25;57.26;39.34;82.98;;
37223;Laerm;28026;48.562;14.440;2022-09-03T12:47:56;55.59;40.36;82.23;;
37223;Laerm;28026;48.562;14.440;2022-09-03T12:50:28;52.87;38.67;73.07;;
37223;Laerm;28026;48.562;14.440;2022-09-03T12:53:02;54.73;38.67;74.58;;
37223;Laerm;28026;48.562;14.440;2022-09-03T12:55:48;54.88;39.81;79.49;;
37223;Laerm;28026;48.562;14.440;2022-09-03T12:58:59;55.41;38.67;78.09;;
37223;Laerm;28026;48.562;14.440;2022-09-03T13:01:46;53.97;39.46;75.12;;
37223;Laerm;28026;48.562;14.440;2022-09-03T13:04:30;57.13;40.62;75.86;;
37223;Laerm;28026;48.562;14.440;2022-09-03T13:07:25;48.70;38.05;68.99;;
37223;Laerm;28026;48.562;14.440;2022-09-03T13:10:06;46.96;40.33;67.38;;
37223;Laerm;28026;48.562;14.440;2022-09-03T13:12:46;42.77;36.91;63.83;;
37223;Laerm;28026;48.562;14.440;2022-09-03T13:15:23;43.40;39.58;48.94;;
37223;Laerm;28026;48.562;14.440;2022-09-03T13:18:32;43.23;38.05;60.04;;
37223;Laerm;28026;48.562;14.440;2022-09-03T13:21:57;41.97;37.52;54.39;;
37223;Laerm;28026;48.562;14.440;2022-09-03T13:25:29;46.40;38.21;69.67;;
37223;Laerm;28026;48.562;14.440;2022-09-03T13:31:35;58.30;38.37;82.14;;
37223;Laerm;28026;48.562;14.440;2022-09-03T13:34:25;49.22;39.81;70.13;;
37223;Laerm;28026;48.562;14.440;2022-09-03T13:37:42;51.80;39.46;76.47;;
37223;Laerm;28026;48.562;14.440;2022-09-03T13:40:40;43.96;38.52;62.89;;
37223;Laerm;28026;48.562;14.440;2022-09-03T13:43:40;55.58;39.46;84.38;;
37223;Laerm;28026;48.562;14.440;2022-09-03T13:52:47;43.62;36.20;65.48;;
37223;Laerm;28026;48.562;14.440;2022-09-03T13:55:44;42.40;38.52;51.59;;
37223;Laerm;28026;48.562;14.440;2022-09-03T13:58:37;45.07;36.91;65.46;;
37223;Laerm;28026;48.562;14.440;2022-09-03T14:01:42;42.87;37.70;52.15;;
37223;Laerm;28026;48.562;14.440;2022-09-03T14:07:33;41.02;36.91;55.99;;
37223;Laerm;28026;48.562;14.440;2022-09-03T14:16:56;41.45;37.12;50.49;;
37223;Laerm;28026;48.562;14.440;2022-09-03T14:19:58;49.40;38.21;74.09;;
37223;Laerm;28026;48.562;14.440;2022-09-03T14:23:08;57.94;37.70;85.83;;
37223;Laerm;28026;48.562;14.440;2022-09-03T14:25:56;55.91;36.91;83.12;;
37223;Laerm;28026;48.562;14.440;2022-09-03T14:28:40;53.85;37.70;80.08;;
37223;Laerm;28026;48.562;14.440;2022-09-03T14:48:20;43.37;40.13;59.22;;
37223;Laerm;28026;48.562;14.440;2022-09-03T14:51:17;42.20;39.34;47.96;;
37223;Laerm;28026;48.562;14.440;2022-09-03T14:54:32;56.31;39.92;81.35;;
37223;Laerm;28026;48.562;14.440;2022-09-03T15:00:15;59.08;38.67;81.64;;
37223;Laerm;28026;48.562;14.440;2022-09-03T15:09:34;58.46;39.58;83.68;;
37223;Laerm;28026;48.562;14.440;2022-09-03T15:12:36;69.63;40.13;93.32;;
37223;Laerm;28026;48.562;14.440;2022-09-03T15:30:23;56.97;38.67;83.62;;
37223;Laerm;28026;48.562;14.440;2022-09-03T15:33:42;60.53;36.45;84.68;;
37223;Laerm;28026;48.562;14.440;2022-09-03T15:39:13;43.34;38.81;56.97;;
37223;Laerm;28026;48.562;14.440;2022-09-03T15:41:56;42.68;37.12;59.31;;
37223;Laerm;28026;48.562;14.440;2022-09-03T15:44:48;42.74;37.70;55.30;;
37223;Laerm;28026;48.562;14.440;2022-09-03T15:50:31;43.19;37.52;71.28;;
37223;Laerm;28026;48.562;14.440;2022-09-03T16:08:11;45.18;39.58;62.93;;
37223;Laerm;28026;48.562;14.440;2022-09-03T16:11:14;49.01;38.32;72.20;;
37223;Laerm;28026;48.562;14.440;2022-09-03T16:14:14;44.55;38.67;62.37;;
37223;Laerm;28026;48.562;14.440;2022-09-03T16:17:08;44.14;38.67;54.08;;
37223;Laerm;28026;48.562;14.440;2022-09-03T16:20:22;43.59;39.21;51.25;;
37223;Laerm;28026;48.562;14.440;2022-09-03T16:23:10;42.85;39.08;62.05;;
37223;Laerm;28026;48.562;14.440;2022-09-03T16:25:54;42.00;36.45;53.33;;
37223;Laerm;28026;48.562;14.440;2022-09-03T16:34:53;44.22;37.88;59.80;;
37223;Laerm;28026;48.562;14.440;2022-09-03T16:41:07;42.87;36.45;54.89;;
37223;Laerm;28026;48.562;14.440;2022-09-03T16:56:34;43.29;35.31;54.27;;
37223;Laerm;28026;48.562;14.440;2022-09-03T17:03:09;41.33;35.94;63.03;;
37223;Laerm;28026;48.562;14.440;2022-09-03T17:25:13;39.92;34.69;50.65;;
37223;Laerm;28026;48.562;14.440;2022-09-03T17:31:45;40.38;35.66;54.06;;
37223;Laerm;28026;48.562;14.440;2022-09-03T17:54:03;41.65;36.91;64.25;;
37223;Laerm;28026;48.562;14.440;2022-09-03T18:00:07;40.34;36.69;45.69;;
37223;Laerm;28026;48.562;14.440;2022-09-03T18:05:45;39.70;36.20;44.76;;
37223;Laerm;28026;48.562;14.440;2022-09-03T18:08:46;41.32;37.32;54.72;;
37223;Laerm;28026;48.562;14.440;2022-09-03T18:11:33;39.34;35.36;49.43;;
37223;Laerm;28026;48.562;14.440;2022-09-03T18:20:26;43.67;38.37;59.44;;
37223;Laerm;28026;48.562;14.440;2022-09-03T18:26:51;42.07;37.70;48.78;;
37223;Laerm;28026;48.562;14.440;2022-09-03T18:29:54;42.16;37.12;49.66;;
37223;Laerm;28026;48.562;14.440;2022-09-03T18:32:47;41.07;35.94;45.33;;
37223;Laerm;28026;48.562;14.440;2022-09-03T18:35:37;40.35;35.94;45.77;;
37223;Laerm;28026;48.562;14.440;2022-09-03T18:38:34;39.31;35.94;47.68;;
37223;Laerm;28026;48.562;14.440;2022-09-03T18:42:06;39.28;35.36;43.86;;
37223;Laerm;28026;48.562;14.440;2022-09-03T18:52:12;40.90;37.12;47.93;;
37223;Laerm;28026;48.562;14.440;2022-09-03T18:55:37;40.40;35.94;62.61;;
37223;Laerm;28026;48.562;14.440;2022-09-03T19:06:04;43.02;37.12;55.34;;
37223;Laerm;28026;48.562;14.440;2022-09-03T19:10:03;40.68;36.45;52.65;;
37223;Laerm;28026;48.562;14.440;2022-09-03T19:13:37;40.50;36.20;64.59;;
37223;Laerm;28026;48.562;14.440;2022-09-03T19:20:30;41.00;37.12;49.08;;
37223;Laerm;28026;48.562;14.440;2022-09-03T19:23:21;43.32;36.20;56.54;;
37223;Laerm;28026;48.562;14.440;2022-09-03T19:26:35;40.63;35.94;49.29;;
37223;Laerm;28026;48.562;14.440;2022-09-03T19:33:08;43.26;36.45;58.77;;
37223;Laerm;28026;48.562;14.440;2022-09-03T19:36:19;51.16;36.45;76.31;;
37223;Laerm;28026;48.562;14.440;2022-09-03T19:43:24;60.27;38.05;86.36;;
37223;Laerm;28026;48.562;14.440;2022-09-03T19:50:23;56.89;36.45;78.95;;